sensor_id;sensor_type;location;lat;lon;timestamp;noise_LAeq;noise_LA_min;noise_LA_max;noise_LA01;noise_LA95
37163;Laerm;23057;48.554;14.454;2022-07-06T00:00:25;59.14;37.87;81.16;;
37163;Laerm;23057;48.554;14.454;2022-07-06T00:02:55;61.54;36.69;82.20;;
37163;Laerm;23057;48.554;14.454;2022-07-06T00:05:26;41.24;36.20;43.63;;
37163;Laerm;23057;48.554;14.454;2022-07-06T00:07:57;41.77;37.70;66.67;;
37163;Laerm;23057;48.554;14.454;2022-07-06T00:10:28;45.64;37.32;60.44;;
37163;Laerm;23057;48.554;14.454;2022-07-06T00:12:59;50.74;37.32;82.48;;
37163;Laerm;23057;48.554;14.454;2022-07-06T00:15:30;41.24;37.52;43.68;;
37163;Laerm;23057;48.554;14.454;2022-07-06T00:18:01;48.14;37.88;62.61;;
37163;Laerm;23057;48.554;14.454;2022-07-06T00:20:32;41.13;34.69;43.24;;
37163;Laerm;23057;48.554;14.454;2022-07-06T00:23:03;41.21;37.52;45.91;;
37163;Laerm;23057;48.554;14.454;2022-07-06T00:25:35;41.33;37.70;44.54;;
37163;Laerm;23057;48.554;14.454;2022-07-06T00:28:06;41.40;37.12;43.29;;
37163;Laerm;23057;48.554;14.454;2022-07-06T00:30:37;41.69;38.05;43.86;;
37163;Laerm;23057;48.554;14.454;2022-07-06T00:33:08;41.86;37.70;58.90;;
37163;Laerm;23057;48.554;14.454;2022-07-06T00:35:39;42.25;38.37;45.42;;
37163;Laerm;23057;48.554;14.454;2022-07-06T00:38:10;41.72;38.21;44.31;;
37163;Laerm;23057;48.554;14.454;2022-07-06T00:40:41;41.72;38.81;43.99;;
37163;Laerm;23057;48.554;14.454;2022-07-06T00:43:12;41.64;38.21;54.97;;
37163;Laerm;23057;48.554;14.454;2022-07-06T00:45:43;47.54;38.05;64.22;;
37163;Laerm;23057;48.554;14.454;2022-07-06T00:48:15;41.66;38.67;43.81;;
37163;Laerm;23057;48.554;14.454;2022-07-06T00:50:46;41.36;37.88;49.52;;
37163;Laerm;23057;48.554;14.454;2022-07-06T00:53:18;41.70;38.21;54.02;;
37163;Laerm;23057;48.554;14.454;2022-07-06T00:55:50;51.17;37.88;68.53;;
37163;Laerm;23057;48.554;14.454;2022-07-06T00:58:21;41.41;37.70;43.81;;
37163;Laerm;23057;48.554;14.454;2022-07-06T01:00:52;41.03;37.32;43.19;;
37163;Laerm;23057;48.554;14.454;2022-07-06T01:03:23;41.35;37.52;51.78;;
37163;Laerm;23057;48.554;14.454;2022-07-06T01:05:54;41.24;37.52;43.44;;
37163;Laerm;23057;48.554;14.454;2022-07-06T01:08:25;41.47;37.32;44.15;;
37163;Laerm;23057;48.554;14.454;2022-07-06T01:10:56;41.40;37.52;52.08;;
37163;Laerm;23057;48.554;14.454;2022-07-06T01:13:30;46.84;36.91;63.04;;
37163;Laerm;23057;48.554;14.454;2022-07-06T01:16:04;41.14;35.36;56.93;;
37163;Laerm;23057;48.554;14.454;2022-07-06T01:18:35;41.22;37.70;43.44;;
37163;Laerm;23057;48.554;14.454;2022-07-06T01:21:14;41.91;38.05;47.96;;
37163;Laerm;23057;48.554;14.454;2022-07-06T01:23:48;50.21;38.05;65.59;;
37163;Laerm;23057;48.554;14.454;2022-07-06T01:26:21;45.50;38.05;60.70;;
37163;Laerm;23057;48.554;14.454;2022-07-06T01:28:52;41.64;37.70;44.23;;
37163;Laerm;23057;48.554;14.454;2022-07-06T01:31:26;41.41;38.60;43.63;;
37163;Laerm;23057;48.554;14.454;2022-07-06T01:33:57;41.43;38.05;44.54;;
37163;Laerm;23057;48.554;14.454;2022-07-06T01:36:28;41.85;38.52;44.54;;
37163;Laerm;23057;48.554;14.454;2022-07-06T01:38:59;47.13;37.70;62.09;;
37163;Laerm;23057;48.554;14.454;2022-07-06T01:41:30;45.76;38.21;61.97;;
37163;Laerm;23057;48.554;14.454;2022-07-06T01:44:02;47.71;37.70;63.29;;
37163;Laerm;23057;48.554;14.454;2022-07-06T01:46:33;50.32;37.32;64.38;;
37163;Laerm;23057;48.554;14.454;2022-07-06T01:49:05;40.93;37.32;43.29;;
37163;Laerm;23057;48.554;14.454;2022-07-06T01:51:36;47.93;37.70;65.58;;
37163;Laerm;23057;48.554;14.454;2022-07-06T01:54:07;41.83;38.67;50.57;;
37163;Laerm;23057;48.554;14.454;2022-07-06T01:56:38;41.47;37.70;47.20;;
37163;Laerm;23057;48.554;14.454;2022-07-06T01:59:09;41.39;37.12;57.15;;
37163;Laerm;23057;48.554;14.454;2022-07-06T02:01:40;46.79;37.32;62.08;;
37163;Laerm;23057;48.554;14.454;2022-07-06T02:04:11;48.47;37.70;67.25;;
37163;Laerm;23057;48.554;14.454;2022-07-06T02:06:42;41.18;36.69;46.25;;
37163;Laerm;23057;48.554;14.454;2022-07-06T02:09:13;41.15;37.32;44.31;;
37163;Laerm;23057;48.554;14.454;2022-07-06T02:11:44;41.44;37.70;43.77;;
37163;Laerm;23057;48.554;14.454;2022-07-06T02:14:15;41.33;37.52;56.40;;
37163;Laerm;23057;48.554;14.454;2022-07-06T02:16:46;46.35;38.37;61.88;;
37163;Laerm;23057;48.554;14.454;2022-07-06T02:19:17;51.64;39.81;66.20;;
37163;Laerm;23057;48.554;14.454;2022-07-06T02:21:48;42.49;39.58;45.36;;
37163;Laerm;23057;48.554;14.454;2022-07-06T02:24:19;51.80;39.81;64.98;;
37163;Laerm;23057;48.554;14.454;2022-07-06T02:26:50;50.58;39.46;65.95;;
37163;Laerm;23057;48.554;14.454;2022-07-06T02:29:20;49.92;40.43;63.75;;
37163;Laerm;23057;48.554;14.454;2022-07-06T02:31:52;46.92;39.92;59.30;;
37163;Laerm;23057;48.554;14.454;2022-07-06T02:34:23;51.64;40.33;65.80;;
37163;Laerm;23057;48.554;14.454;2022-07-06T02:36:54;51.44;39.92;64.91;;
37163;Laerm;23057;48.554;14.454;2022-07-06T02:39:24;50.78;40.23;65.17;;
37163;Laerm;23057;48.554;14.454;2022-07-06T02:41:55;56.61;39.81;69.95;;
37163;Laerm;23057;48.554;14.454;2022-07-06T02:44:26;50.83;39.89;66.45;;
37163;Laerm;23057;48.554;14.454;2022-07-06T02:46:57;50.91;40.03;64.46;;
37163;Laerm;23057;48.554;14.454;2022-07-06T02:49:28;42.62;39.58;48.95;;
37163;Laerm;23057;48.554;14.454;2022-07-06T02:51:59;50.03;40.53;64.72;;
37163;Laerm;23057;48.554;14.454;2022-07-06T02:54:30;51.91;39.81;66.25;;
37163;Laerm;23057;48.554;14.454;2022-07-06T02:57:02;52.67;39.34;68.61;;
37163;Laerm;23057;48.554;14.454;2022-07-06T02:59:33;46.33;39.08;59.81;;
37163;Laerm;23057;48.554;14.454;2022-07-06T03:02:07;52.02;39.46;65.87;;
37163;Laerm;23057;48.554;14.454;2022-07-06T03:04:38;53.49;39.46;66.29;;
37163;Laerm;23057;48.554;14.454;2022-07-06T03:07:09;47.91;40.13;63.10;;
37163;Laerm;23057;48.554;14.454;2022-07-06T03:09:40;50.83;39.21;64.33;;
37163;Laerm;23057;48.554;14.454;2022-07-06T03:12:11;53.59;41.22;68.20;;
37163;Laerm;23057;48.554;14.454;2022-07-06T03:14:42;51.83;39.58;67.82;;
37163;Laerm;23057;48.554;14.454;2022-07-06T03:17:13;46.27;39.81;60.94;;
37163;Laerm;23057;48.554;14.454;2022-07-06T03:19:44;51.32;39.58;65.60;;
37163;Laerm;23057;48.554;14.454;2022-07-06T03:22:15;52.97;39.46;66.70;;
37163;Laerm;23057;48.554;14.454;2022-07-06T03:24:46;50.28;39.21;66.87;;
37163;Laerm;23057;48.554;14.454;2022-07-06T03:27:17;63.45;39.92;81.86;;
37163;Laerm;23057;48.554;14.454;2022-07-06T03:29:48;55.25;39.46;66.14;;
37163;Laerm;23057;48.554;14.454;2022-07-06T03:32:19;51.73;40.03;63.80;;
37163;Laerm;23057;48.554;14.454;2022-07-06T03:34:50;51.61;40.27;65.89;;
37163;Laerm;23057;48.554;14.454;2022-07-06T03:37:21;54.33;41.14;66.00;;
37163;Laerm;23057;48.554;14.454;2022-07-06T03:39:52;54.62;40.03;69.35;;
37163;Laerm;23057;48.554;14.454;2022-07-06T03:42:23;54.57;41.82;70.18;;
37163;Laerm;23057;48.554;14.454;2022-07-06T03:44:53;55.26;40.62;66.25;;
37163;Laerm;23057;48.554;14.454;2022-07-06T03:47:24;53.69;41.75;66.05;;
37163;Laerm;23057;48.554;14.454;2022-07-06T03:49:56;55.73;41.14;73.60;;
37163;Laerm;23057;48.554;14.454;2022-07-06T03:52:27;55.47;41.06;67.95;;
37163;Laerm;23057;48.554;14.454;2022-07-06T03:54:58;50.13;41.14;68.97;;
37163;Laerm;23057;48.554;14.454;2022-07-06T03:57:29;54.01;43.94;66.76;;
37163;Laerm;23057;48.554;14.454;2022-07-06T03:59:59;52.91;42.98;67.26;;
37163;Laerm;23057;48.554;14.454;2022-07-06T04:02:30;53.00;42.82;67.05;;
37163;Laerm;23057;48.554;14.454;2022-07-06T04:05:02;54.91;43.63;67.81;;
37163;Laerm;23057;48.554;14.454;2022-07-06T04:07:33;53.69;42.65;65.85;;
37163;Laerm;23057;48.554;14.454;2022-07-06T04:10:05;55.23;41.96;69.05;;
37163;Laerm;23057;48.554;14.454;2022-07-06T04:12:42;55.85;43.34;67.27;;
37163;Laerm;23057;48.554;14.454;2022-07-06T04:15:13;55.82;45.86;67.29;;
37163;Laerm;23057;48.554;14.454;2022-07-06T04:17:44;53.84;43.68;65.27;;
37163;Laerm;23057;48.554;14.454;2022-07-06T04:20:25;53.99;44.11;64.18;;
37163;Laerm;23057;48.554;14.454;2022-07-06T04:22:56;59.40;44.83;72.92;;
37163;Laerm;23057;48.554;14.454;2022-07-06T04:25:27;55.53;44.94;64.40;;
37163;Laerm;23057;48.554;14.454;2022-07-06T04:27:58;54.99;41.75;64.71;;
37163;Laerm;23057;48.554;14.454;2022-07-06T04:30:29;56.41;43.63;66.80;;
37163;Laerm;23057;48.554;14.454;2022-07-06T04:33:01;57.18;45.33;69.83;;
37163;Laerm;23057;48.554;14.454;2022-07-06T04:35:32;57.15;42.41;71.28;;
37163;Laerm;23057;48.554;14.454;2022-07-06T04:38:03;55.81;42.47;66.94;;
37163;Laerm;23057;48.554;14.454;2022-07-06T04:40:35;57.89;45.77;68.79;;
37163;Laerm;23057;48.554;14.454;2022-07-06T04:43:06;55.92;44.90;69.54;;
37163;Laerm;23057;48.554;14.454;2022-07-06T04:45:37;55.45;43.49;67.74;;
37163;Laerm;23057;48.554;14.454;2022-07-06T04:48:08;54.18;42.16;67.49;;
37163;Laerm;23057;48.554;14.454;2022-07-06T04:50:39;56.93;42.53;74.46;;
37163;Laerm;23057;48.554;14.454;2022-07-06T04:53:10;54.37;40.62;68.18;;
37163;Laerm;23057;48.554;14.454;2022-07-06T04:55:41;56.21;41.14;66.98;;
37163;Laerm;23057;48.554;14.454;2022-07-06T04:58:13;52.76;40.98;65.11;;
37163;Laerm;23057;48.554;14.454;2022-07-06T05:00:44;52.10;43.44;66.36;;
37163;Laerm;23057;48.554;14.454;2022-07-06T05:03:15;57.14;42.82;70.11;;
37163;Laerm;23057;48.554;14.454;2022-07-06T05:05:45;54.49;41.61;67.77;;
37163;Laerm;23057;48.554;14.454;2022-07-06T05:08:16;51.31;42.88;64.02;;
37163;Laerm;23057;48.554;14.454;2022-07-06T05:10:49;53.33;42.76;66.49;;
37163;Laerm;23057;48.554;14.454;2022-07-06T05:13:19;55.17;42.71;67.12;;
37163;Laerm;23057;48.554;14.454;2022-07-06T05:15:50;52.25;42.03;67.13;;
37163;Laerm;23057;48.554;14.454;2022-07-06T05:18:21;54.61;43.14;73.00;;
37163;Laerm;23057;48.554;14.454;2022-07-06T05:20:52;55.39;41.68;67.50;;
37163;Laerm;23057;48.554;14.454;2022-07-06T05:23:23;52.27;41.75;64.91;;
37163;Laerm;23057;48.554;14.454;2022-07-06T05:25:54;56.69;44.39;69.39;;
37163;Laerm;23057;48.554;14.454;2022-07-06T05:28:25;56.59;40.80;70.17;;
37163;Laerm;23057;48.554;14.454;2022-07-06T05:30:56;48.58;39.81;63.38;;
37163;Laerm;23057;48.554;14.454;2022-07-06T05:33:30;52.04;39.81;65.55;;
37163;Laerm;23057;48.554;14.454;2022-07-06T05:36:01;56.22;42.47;71.97;;
37163;Laerm;23057;48.554;14.454;2022-07-06T05:38:32;53.41;40.89;64.77;;
37163;Laerm;23057;48.554;14.454;2022-07-06T05:41:03;54.46;40.88;66.14;;
37163;Laerm;23057;48.554;14.454;2022-07-06T05:43:36;57.80;42.76;78.49;;
37163;Laerm;23057;48.554;14.454;2022-07-06T05:46:08;53.97;40.71;67.87;;
37163;Laerm;23057;48.554;14.454;2022-07-06T05:48:38;54.20;40.13;67.93;;
37163;Laerm;23057;48.554;14.454;2022-07-06T05:51:28;57.13;41.46;74.49;;
37163;Laerm;23057;48.554;14.454;2022-07-06T05:53:59;56.02;40.80;67.41;;
37163;Laerm;23057;48.554;14.454;2022-07-06T05:56:30;50.66;40.43;68.83;;
37163;Laerm;23057;48.554;14.454;2022-07-06T05:59:00;54.91;40.89;70.59;;
37163;Laerm;23057;48.554;14.454;2022-07-06T06:01:31;53.34;40.43;65.64;;
37163;Laerm;23057;48.554;14.454;2022-07-06T06:04:02;55.13;39.81;69.50;;
37163;Laerm;23057;48.554;14.454;2022-07-06T06:06:33;49.27;40.08;64.87;;
37163;Laerm;23057;48.554;14.454;2022-07-06T06:09:04;55.67;40.89;72.35;;
37163;Laerm;23057;48.554;14.454;2022-07-06T06:11:35;49.99;41.06;64.61;;
37163;Laerm;23057;48.554;14.454;2022-07-06T06:14:06;55.33;41.68;71.27;;
37163;Laerm;23057;48.554;14.454;2022-07-06T06:16:37;51.94;39.92;63.59;;
37163;Laerm;23057;48.554;14.454;2022-07-06T06:19:08;61.38;40.89;80.72;;
37163;Laerm;23057;48.554;14.454;2022-07-06T06:21:39;56.27;40.71;70.02;;
37163;Laerm;23057;48.554;14.454;2022-07-06T06:24:10;54.01;40.33;68.69;;
37163;Laerm;23057;48.554;14.454;2022-07-06T06:26:41;55.30;40.03;71.41;;
37163;Laerm;23057;48.554;14.454;2022-07-06T06:29:12;53.60;41.61;66.08;;
37163;Laerm;23057;48.554;14.454;2022-07-06T06:31:43;51.70;40.23;65.56;;
37163;Laerm;23057;48.554;14.454;2022-07-06T06:34:14;51.48;39.92;63.83;;
37163;Laerm;23057;48.554;14.454;2022-07-06T06:36:45;51.08;40.53;63.90;;
37163;Laerm;23057;48.554;14.454;2022-07-06T06:39:16;56.26;42.71;79.11;;
37163;Laerm;23057;48.554;14.454;2022-07-06T06:41:47;55.23;40.89;73.63;;
37163;Laerm;23057;48.554;14.454;2022-07-06T06:44:18;54.83;42.41;69.07;;
37163;Laerm;23057;48.554;14.454;2022-07-06T06:46:50;52.47;41.75;68.77;;
37163;Laerm;23057;48.554;14.454;2022-07-06T06:49:22;54.03;41.68;66.12;;
37163;Laerm;23057;48.554;14.454;2022-07-06T06:51:53;54.48;39.81;68.52;;
37163;Laerm;23057;48.554;14.454;2022-07-06T06:54:24;53.93;41.06;68.69;;
37163;Laerm;23057;48.554;14.454;2022-07-06T06:56:55;57.62;43.49;70.71;;
37163;Laerm;23057;48.554;14.454;2022-07-06T06:59:26;57.60;44.76;73.33;;
37163;Laerm;23057;48.554;14.454;2022-07-06T07:01:57;52.60;44.23;64.99;;
37163;Laerm;23057;48.554;14.454;2022-07-06T07:04:27;55.48;45.48;69.92;;
37163;Laerm;23057;48.554;14.454;2022-07-06T07:07:00;53.68;44.87;66.67;;
37163;Laerm;23057;48.554;14.454;2022-07-06T07:09:30;58.41;43.99;71.32;;
37163;Laerm;23057;48.554;14.454;2022-07-06T07:12:02;55.51;44.94;72.67;;
37163;Laerm;23057;48.554;14.454;2022-07-06T07:14:33;57.51;44.76;72.70;;
37163;Laerm;23057;48.554;14.454;2022-07-06T07:17:04;53.66;44.19;67.28;;
37163;Laerm;23057;48.554;14.454;2022-07-06T07:19:35;53.59;44.35;65.36;;
37163;Laerm;23057;48.554;14.454;2022-07-06T07:22:06;56.48;45.23;72.41;;
37163;Laerm;23057;48.554;14.454;2022-07-06T07:24:37;54.88;44.15;67.38;;
37163;Laerm;23057;48.554;14.454;2022-07-06T07:27:08;50.08;41.26;62.90;;
37163;Laerm;23057;48.554;14.454;2022-07-06T07:29:38;50.91;41.46;64.44;;
37163;Laerm;23057;48.554;14.454;2022-07-06T07:32:09;53.50;43.44;63.50;;
37163;Laerm;23057;48.554;14.454;2022-07-06T07:34:40;51.14;42.29;61.57;;
37163;Laerm;23057;48.554;14.454;2022-07-06T07:37:12;49.01;40.89;63.03;;
37163;Laerm;23057;48.554;14.454;2022-07-06T07:39:43;51.02;41.75;62.71;;
37163;Laerm;23057;48.554;14.454;2022-07-06T07:42:13;54.88;40.89;70.12;;
37163;Laerm;23057;48.554;14.454;2022-07-06T07:44:45;56.28;42.59;70.74;;
37163;Laerm;23057;48.554;14.454;2022-07-06T07:47:16;51.51;40.71;64.73;;
37163;Laerm;23057;48.554;14.454;2022-07-06T07:49:47;53.29;40.89;65.81;;
37163;Laerm;23057;48.554;14.454;2022-07-06T07:52:18;52.97;43.77;66.52;;
37163;Laerm;23057;48.554;14.454;2022-07-06T07:54:49;59.59;41.22;71.81;;
37163;Laerm;23057;48.554;14.454;2022-07-06T07:57:20;53.53;42.82;67.35;;
37163;Laerm;23057;48.554;14.454;2022-07-06T07:59:51;53.41;42.82;69.93;;
37163;Laerm;23057;48.554;14.454;2022-07-06T08:02:22;52.13;42.41;64.73;;
37163;Laerm;23057;48.554;14.454;2022-07-06T08:04:53;53.93;42.35;68.49;;
37163;Laerm;23057;48.554;14.454;2022-07-06T08:07:23;57.13;41.68;73.00;;
37163;Laerm;23057;48.554;14.454;2022-07-06T08:09:54;55.16;42.71;70.37;;
37163;Laerm;23057;48.554;14.454;2022-07-06T08:12:25;58.98;42.65;71.98;;
37163;Laerm;23057;48.554;14.454;2022-07-06T08:14:57;56.03;41.89;68.59;;
37163;Laerm;23057;48.554;14.454;2022-07-06T08:17:28;55.74;43.09;70.49;;
37163;Laerm;23057;48.554;14.454;2022-07-06T08:19:59;54.82;40.89;73.69;;
37163;Laerm;23057;48.554;14.454;2022-07-06T08:22:30;59.24;42.65;76.00;;
37163;Laerm;23057;48.554;14.454;2022-07-06T08:25:01;59.46;43.54;74.99;;
37163;Laerm;23057;48.554;14.454;2022-07-06T08:27:31;56.64;42.98;73.41;;
37163;Laerm;23057;48.554;14.454;2022-07-06T08:30:06;58.43;45.99;72.08;;
37163;Laerm;23057;48.554;14.454;2022-07-06T08:32:43;58.60;45.73;72.39;;
37163;Laerm;23057;48.554;14.454;2022-07-06T08:35:14;59.45;45.72;77.88;;
37163;Laerm;23057;48.554;14.454;2022-07-06T08:37:45;61.43;44.87;77.32;;
37163;Laerm;23057;48.554;14.454;2022-07-06T08:40:16;58.75;46.13;70.79;;
37163;Laerm;23057;48.554;14.454;2022-07-06T08:42:53;57.58;44.73;71.22;;
37163;Laerm;23057;48.554;14.454;2022-07-06T08:45:26;57.25;45.45;68.58;;
37163;Laerm;23057;48.554;14.454;2022-07-06T08:48:05;52.21;44.23;67.74;;
37163;Laerm;23057;48.554;14.454;2022-07-06T08:50:38;56.82;44.76;71.95;;
37163;Laerm;23057;48.554;14.454;2022-07-06T08:53:09;59.84;45.54;74.18;;
37163;Laerm;23057;48.554;14.454;2022-07-06T08:55:41;55.32;45.83;66.03;;
37163;Laerm;23057;48.554;14.454;2022-07-06T08:58:13;55.60;43.86;68.72;;
37163;Laerm;23057;48.554;14.454;2022-07-06T09:00:45;53.50;41.96;71.31;;
37163;Laerm;23057;48.554;14.454;2022-07-06T09:03:20;55.76;41.61;73.28;;
37163;Laerm;23057;48.554;14.454;2022-07-06T09:06:00;56.98;42.16;71.65;;
37163;Laerm;23057;48.554;14.454;2022-07-06T09:08:33;53.21;39.70;67.42;;
37163;Laerm;23057;48.554;14.454;2022-07-06T09:11:14;51.54;40.03;67.04;;
37163;Laerm;23057;48.554;14.454;2022-07-06T09:13:50;59.63;42.88;73.86;;
37163;Laerm;23057;48.554;14.454;2022-07-06T09:16:30;56.71;42.41;69.81;;
37163;Laerm;23057;48.554;14.454;2022-07-06T09:19:13;60.59;41.75;72.19;;
37163;Laerm;23057;48.554;14.454;2022-07-06T09:21:44;53.09;40.71;66.25;;
37163;Laerm;23057;48.554;14.454;2022-07-06T09:24:20;52.02;40.89;65.23;;
37163;Laerm;23057;48.554;14.454;2022-07-06T09:26:59;53.75;40.80;68.29;;
37163;Laerm;23057;48.554;14.454;2022-07-06T09:29:36;54.09;41.30;75.00;;
37163;Laerm;23057;48.554;14.454;2022-07-06T09:32:11;57.82;41.14;74.32;;
37163;Laerm;23057;48.554;14.454;2022-07-06T09:34:48;54.29;42.29;70.10;;
37163;Laerm;23057;48.554;14.454;2022-07-06T09:37:30;58.60;41.68;75.03;;
37163;Laerm;23057;48.554;14.454;2022-07-06T09:40:19;57.18;41.06;73.17;;
37163;Laerm;23057;48.554;14.454;2022-07-06T09:43:13;48.36;40.43;62.48;;
37163;Laerm;23057;48.554;14.454;2022-07-06T09:45:50;49.82;41.06;65.55;;
37163;Laerm;23057;48.554;14.454;2022-07-06T09:48:27;56.25;41.22;71.47;;
37163;Laerm;23057;48.554;14.454;2022-07-06T09:51:01;52.50;39.58;66.28;;
37163;Laerm;23057;48.554;14.454;2022-07-06T09:53:36;53.50;40.33;66.77;;
37163;Laerm;23057;48.554;14.454;2022-07-06T09:56:07;53.28;41.14;68.19;;
37163;Laerm;23057;48.554;14.454;2022-07-06T09:58:39;54.78;43.90;69.69;;
37163;Laerm;23057;48.554;14.454;2022-07-06T10:01:10;52.69;44.76;64.01;;
37163;Laerm;23057;48.554;14.454;2022-07-06T10:03:41;54.69;44.23;69.92;;
37163;Laerm;23057;48.554;14.454;2022-07-06T10:06:12;58.01;44.97;72.62;;
37163;Laerm;23057;48.554;14.454;2022-07-06T10:08:45;61.25;47.26;82.74;;
37163;Laerm;23057;48.554;14.454;2022-07-06T10:11:16;55.44;45.80;69.58;;
37163;Laerm;23057;48.554;14.454;2022-07-06T10:13:54;58.54;46.07;71.54;;
37163;Laerm;23057;48.554;14.454;2022-07-06T10:16:26;57.12;45.66;76.52;;
37163;Laerm;23057;48.554;14.454;2022-07-06T10:19:02;56.55;46.01;71.41;;
37163;Laerm;23057;48.554;14.454;2022-07-06T10:21:40;56.51;45.23;76.63;;
37163;Laerm;23057;48.554;14.454;2022-07-06T10:24:13;54.31;42.03;69.63;;
37163;Laerm;23057;48.554;14.454;2022-07-06T10:26:46;57.59;43.44;70.41;;
37163;Laerm;23057;48.554;14.454;2022-07-06T10:29:19;58.10;44.47;71.75;;
37163;Laerm;23057;48.554;14.454;2022-07-06T10:31:51;56.82;44.69;66.89;;
37163;Laerm;23057;48.554;14.454;2022-07-06T10:34:23;57.00;45.23;68.69;;
37163;Laerm;23057;48.554;14.454;2022-07-06T10:36:55;54.27;44.47;64.44;;
37163;Laerm;23057;48.554;14.454;2022-07-06T10:39:36;55.65;40.62;75.61;;
37163;Laerm;23057;48.554;14.454;2022-07-06T10:42:44;52.93;42.41;66.03;;
37163;Laerm;23057;48.554;14.454;2022-07-06T10:50:50;54.46;41.38;68.48;;
37163;Laerm;23057;48.554;14.454;2022-07-06T10:53:28;52.69;41.46;63.73;;
37163;Laerm;23057;48.554;14.454;2022-07-06T10:56:06;56.63;41.61;73.13;;
37163;Laerm;23057;48.554;14.454;2022-07-06T11:01:12;59.43;40.53;75.99;;
37163;Laerm;23057;48.554;14.454;2022-07-06T11:03:50;56.29;42.30;73.56;;
37163;Laerm;23057;48.554;14.454;2022-07-06T11:06:39;52.58;41.61;68.23;;
37163;Laerm;23057;48.554;14.454;2022-07-06T11:09:11;53.87;42.22;73.52;;
37163;Laerm;23057;48.554;14.454;2022-07-06T11:11:43;57.54;42.76;75.99;;
37163;Laerm;23057;48.554;14.454;2022-07-06T11:14:21;57.77;43.29;80.03;;
37163;Laerm;23057;48.554;14.454;2022-07-06T11:19:24;64.36;45.11;85.50;;
37163;Laerm;23057;48.554;14.454;2022-07-06T11:22:04;62.00;46.13;82.31;;
37163;Laerm;23057;48.554;14.454;2022-07-06T11:24:40;74.19;57.52;94.09;;
37163;Laerm;23057;48.554;14.454;2022-07-06T11:27:13;69.86;62.83;80.03;;
37163;Laerm;23057;48.554;14.454;2022-07-06T11:29:44;68.43;58.73;87.50;;
37163;Laerm;23057;48.554;14.454;2022-07-06T11:32:24;61.96;46.40;71.86;;
37163;Laerm;23057;48.554;14.454;2022-07-06T11:34:55;57.82;43.81;70.14;;
37163;Laerm;23057;48.554;14.454;2022-07-06T11:37:26;60.21;43.94;71.39;;
37163;Laerm;23057;48.554;14.454;2022-07-06T11:40:07;56.84;41.55;69.25;;
37163;Laerm;23057;48.554;14.454;2022-07-06T11:42:38;58.16;41.82;70.65;;
37163;Laerm;23057;48.554;14.454;2022-07-06T11:45:11;53.48;40.53;66.94;;
37163;Laerm;23057;48.554;14.454;2022-07-06T11:47:42;59.69;42.47;73.28;;
37163;Laerm;23057;48.554;14.454;2022-07-06T11:50:20;58.63;41.46;72.96;;
37163;Laerm;23057;48.554;14.454;2022-07-06T11:52:51;58.19;42.16;74.72;;
37163;Laerm;23057;48.554;14.454;2022-07-06T11:55:22;60.57;42.35;74.84;;
37163;Laerm;23057;48.554;14.454;2022-07-06T11:57:54;58.84;41.96;81.47;;
37163;Laerm;23057;48.554;14.454;2022-07-06T12:00:27;60.88;40.62;79.63;;
37163;Laerm;23057;48.554;14.454;2022-07-06T12:03:01;61.30;44.03;77.58;;
37163;Laerm;23057;48.554;14.454;2022-07-06T12:05:32;56.89;43.58;75.53;;
37163;Laerm;23057;48.554;14.454;2022-07-06T12:08:05;58.05;41.46;78.65;;
37163;Laerm;23057;48.554;14.454;2022-07-06T12:10:36;63.56;40.98;89.55;;
37163;Laerm;23057;48.554;14.454;2022-07-06T12:13:08;61.12;42.88;82.20;;
37163;Laerm;23057;48.554;14.454;2022-07-06T12:15:39;56.43;40.53;77.23;;
37163;Laerm;23057;48.554;14.454;2022-07-06T12:18:11;54.77;41.22;67.88;;
37163;Laerm;23057;48.554;14.454;2022-07-06T12:20:42;55.77;43.44;69.26;;
37163;Laerm;23057;48.554;14.454;2022-07-06T12:23:13;51.74;40.80;65.26;;
37163;Laerm;23057;48.554;14.454;2022-07-06T12:25:44;56.41;41.88;70.80;;
37163;Laerm;23057;48.554;14.454;2022-07-06T12:28:24;54.14;39.21;72.43;;
37163;Laerm;23057;48.554;14.454;2022-07-06T12:30:55;52.70;40.43;65.70;;
37163;Laerm;23057;48.554;14.454;2022-07-06T12:33:26;55.81;40.71;69.98;;
37163;Laerm;23057;48.554;14.454;2022-07-06T12:36:13;53.30;39.92;68.47;;
37163;Laerm;23057;48.554;14.454;2022-07-06T12:38:48;57.39;41.75;68.46;;
37163;Laerm;23057;48.554;14.454;2022-07-06T12:41:34;56.37;40.53;70.08;;
37163;Laerm;23057;48.554;14.454;2022-07-06T12:44:09;51.01;42.35;63.29;;
37163;Laerm;23057;48.554;14.454;2022-07-06T12:46:41;57.40;42.53;71.62;;
37163;Laerm;23057;48.554;14.454;2022-07-06T12:49:23;59.78;42.82;72.43;;
37163;Laerm;23057;48.554;14.454;2022-07-06T12:54:50;52.85;42.22;73.42;;
37163;Laerm;23057;48.554;14.454;2022-07-06T12:57:25;54.86;40.53;68.61;;
37163;Laerm;23057;48.554;14.454;2022-07-06T12:59:58;54.74;42.65;65.04;;
37163;Laerm;23057;48.554;14.454;2022-07-06T13:02:35;54.33;41.75;69.00;;
37163;Laerm;23057;48.554;14.454;2022-07-06T13:05:14;52.92;41.61;68.44;;
37163;Laerm;23057;48.554;14.454;2022-07-06T13:07:48;55.17;41.06;76.84;;
37163;Laerm;23057;48.554;14.454;2022-07-06T13:10:19;55.95;40.43;77.49;;
37163;Laerm;23057;48.554;14.454;2022-07-06T13:12:51;54.43;43.04;66.07;;
37163;Laerm;23057;48.554;14.454;2022-07-06T13:15:22;54.46;40.53;64.69;;
37163;Laerm;23057;48.554;14.454;2022-07-06T13:17:53;54.99;41.75;71.45;;
37163;Laerm;23057;48.554;14.454;2022-07-06T13:20:24;55.08;41.94;66.81;;
37163;Laerm;23057;48.554;14.454;2022-07-06T13:22:55;54.39;42.35;68.51;;
37163;Laerm;23057;48.554;14.454;2022-07-06T13:25:26;55.64;42.93;71.14;;
37163;Laerm;23057;48.554;14.454;2022-07-06T13:27:57;59.58;45.27;75.24;;
37163;Laerm;23057;48.554;14.454;2022-07-06T13:30:28;59.94;42.53;78.91;;
37163;Laerm;23057;48.554;14.454;2022-07-06T13:32:59;60.93;46.15;78.55;;
37163;Laerm;23057;48.554;14.454;2022-07-06T13:35:30;60.71;43.54;73.28;;
37163;Laerm;23057;48.554;14.454;2022-07-06T13:38:01;57.52;41.22;68.87;;
37163;Laerm;23057;48.554;14.454;2022-07-06T13:40:32;56.71;42.16;75.53;;
37163;Laerm;23057;48.554;14.454;2022-07-06T13:43:05;59.31;42.71;75.30;;
37163;Laerm;23057;48.554;14.454;2022-07-06T13:45:36;54.58;42.22;76.26;;
37163;Laerm;23057;48.554;14.454;2022-07-06T13:48:08;57.87;42.35;70.00;;
37163;Laerm;23057;48.554;14.454;2022-07-06T13:50:39;57.19;43.29;67.41;;
37163;Laerm;23057;48.554;14.454;2022-07-06T13:53:10;53.64;40.33;66.54;;
37163;Laerm;23057;48.554;14.454;2022-07-06T13:55:41;53.01;39.21;64.43;;
37163;Laerm;23057;48.554;14.454;2022-07-06T13:58:12;56.53;41.89;70.07;;
37163;Laerm;23057;48.554;14.454;2022-07-06T14:00:43;58.08;43.58;70.52;;
37163;Laerm;23057;48.554;14.454;2022-07-06T14:03:14;56.11;42.88;66.84;;
37163;Laerm;23057;48.554;14.454;2022-07-06T14:05:45;55.93;42.41;69.03;;
37163;Laerm;23057;48.554;14.454;2022-07-06T14:08:16;56.52;43.99;67.91;;
37163;Laerm;23057;48.554;14.454;2022-07-06T14:10:47;56.77;42.41;71.69;;
37163;Laerm;23057;48.554;14.454;2022-07-06T14:13:19;55.35;44.58;66.01;;